createdAt,value
2024-01-14T00:01:24.345Z,3.60
2024-01-14T00:03:51.749Z,4.20
2024-01-14T00:06:19.135Z,4.53
2024-01-14T00:08:46.050Z,4.20
2024-01-14T00:11:12.892Z,4.23
2024-01-14T00:13:39.641Z,3.87
2024-01-14T00:16:06.509Z,4.60
2024-01-14T00:18:33.560Z,4.30
2024-01-14T00:21:00.460Z,3.80
2024-01-14T00:23:27.254Z,4.63
2024-01-14T00:25:54.105Z,4.60
2024-01-14T00:28:21.093Z,4.40
2024-01-14T00:30:48.036Z,4.20
2024-01-14T00:33:15.001Z,4.00
2024-01-14T00:35:44.965Z,4.27
2024-01-14T00:38:14.792Z,4.13
2024-01-14T00:40:41.872Z,4.17
2024-01-14T00:43:09.157Z,4.70
2024-01-14T00:45:35.994Z,4.40
2024-01-14T00:48:03.454Z,3.90
2024-01-14T00:50:31.755Z,5.33
2024-01-14T00:53:00.065Z,4.40
2024-01-14T00:55:26.963Z,4.00
2024-01-14T00:57:53.806Z,4.40
2024-01-14T01:00:20.796Z,4.23
2024-01-14T01:02:48.430Z,4.33
2024-01-14T01:05:15.808Z,4.37
2024-01-14T01:07:42.708Z,4.60
2024-01-14T01:10:10.342Z,3.63
2024-01-14T01:12:37.271Z,3.90
2024-01-14T01:15:06.562Z,3.90
2024-01-14T01:17:34.190Z,3.50
2024-01-14T01:20:01.326Z,3.60
2024-01-14T01:22:28.710Z,3.67
2024-01-14T01:24:55.720Z,3.80
2024-01-14T01:27:22.649Z,4.30
2024-01-14T01:29:49.661Z,3.90
2024-01-14T01:32:16.515Z,4.53
2024-01-14T01:34:44.096Z,4.77
2024-01-14T01:37:11.259Z,5.03
2024-01-14T01:39:38.632Z,4.30
2024-01-14T01:42:05.719Z,4.50
2024-01-14T01:44:32.627Z,3.87
2024-01-14T01:46:59.606Z,4.33
2024-01-14T01:49:26.760Z,4.60
2024-01-14T01:51:53.729Z,4.70
2024-01-14T01:54:22.682Z,4.57
2024-01-14T01:56:50.959Z,5.10
2024-01-14T01:59:17.800Z,4.80
2024-01-14T02:01:45.815Z,4.90
2024-01-14T02:04:12.938Z,4.70
2024-01-14T02:06:40.108Z,4.70
2024-01-14T02:09:08.784Z,4.43
2024-01-14T02:11:36.332Z,4.87
2024-01-14T02:14:03.625Z,5.10
2024-01-14T02:16:30.587Z,5.13
2024-01-14T02:18:57.486Z,5.07
2024-01-14T02:21:26.849Z,5.30
2024-01-14T02:23:59.677Z,4.30
2024-01-14T02:26:26.479Z,5.03
2024-01-14T02:28:53.314Z,5.10
2024-01-14T02:31:20.398Z,5.17
2024-01-14T02:33:47.350Z,5.57
2024-01-14T02:36:14.194Z,4.67
2024-01-14T02:38:40.942Z,5.63
2024-01-14T02:41:07.797Z,4.60
2024-01-14T02:43:34.569Z,4.90
2024-01-14T02:46:01.327Z,4.83
2024-01-14T02:48:28.221Z,4.70
2024-01-14T02:50:55.087Z,5.33
2024-01-14T02:53:21.898Z,4.40
2024-01-14T02:55:48.679Z,4.67
2024-01-14T02:58:15.458Z,4.80
2024-01-14T03:00:42.258Z,4.77
2024-01-14T03:03:09.221Z,4.30
2024-01-14T03:05:36.120Z,4.60
2024-01-14T03:08:02.939Z,4.60
2024-01-14T03:10:29.822Z,4.40
2024-01-14T03:12:56.589Z,4.53
2024-01-14T03:15:23.378Z,4.43
2024-01-14T03:17:50.429Z,4.90
2024-01-14T03:20:17.925Z,3.90
2024-01-14T03:22:44.781Z,4.00
2024-01-14T03:25:11.644Z,3.77
2024-01-14T03:27:38.692Z,3.90
2024-01-14T03:30:06.395Z,4.03
2024-01-14T03:32:33.301Z,3.90
2024-01-14T03:35:00.057Z,3.83
2024-01-14T03:37:26.844Z,4.00
2024-01-14T03:39:53.849Z,4.87
2024-01-14T03:42:20.666Z,5.17
2024-01-14T03:44:47.735Z,5.50
2024-01-14T03:47:14.505Z,4.67
2024-01-14T03:49:41.461Z,5.20
2024-01-14T03:52:08.422Z,4.83
2024-01-14T03:54:35.242Z,3.80
2024-01-14T03:57:02.089Z,4.10
2024-01-14T03:59:28.913Z,3.67
2024-01-14T04:01:55.679Z,3.63
2024-01-14T04:04:22.789Z,3.90
2024-01-14T04:06:49.814Z,3.50
2024-01-14T04:09:16.737Z,4.70
2024-01-14T04:11:43.686Z,3.83
2024-01-14T04:14:10.470Z,4.40
2024-01-14T04:16:38.138Z,3.43
2024-01-14T04:19:05.219Z,3.50
2024-01-14T04:21:32.369Z,3.93
2024-01-14T04:24:05.268Z,3.60
2024-01-14T04:26:32.092Z,3.47
2024-01-14T04:28:59.325Z,3.20
2024-01-14T04:31:26.370Z,3.60
2024-01-14T04:33:53.234Z,3.83
2024-01-14T04:36:20.134Z,3.77
2024-01-14T04:38:47.003Z,4.07
2024-01-14T04:41:13.764Z,4.60
2024-01-14T04:43:40.514Z,4.30
2024-01-14T04:46:11.795Z,4.50
2024-01-14T04:48:38.823Z,3.80
2024-01-14T04:51:05.864Z,3.40
2024-01-14T04:53:32.660Z,3.70
2024-01-14T04:55:59.444Z,3.60
2024-01-14T04:58:26.318Z,3.70
2024-01-14T05:00:53.213Z,3.60
2024-01-14T05:03:20.441Z,3.50
2024-01-14T05:05:47.278Z,3.90
2024-01-14T05:08:14.051Z,3.87
2024-01-14T05:10:40.838Z,4.00
2024-01-14T05:13:07.703Z,4.37
2024-01-14T05:15:34.684Z,4.10
2024-01-14T05:18:01.899Z,4.03
2024-01-14T05:20:28.815Z,3.70
2024-01-14T05:22:55.558Z,3.50
2024-01-14T05:25:22.593Z,3.83
2024-01-14T05:27:49.366Z,4.30
2024-01-14T05:30:16.424Z,3.80
2024-01-14T05:32:43.370Z,3.80
2024-01-14T05:35:12.598Z,4.30
2024-01-14T05:37:39.342Z,4.40
2024-01-14T05:40:06.413Z,4.00
2024-01-14T05:42:33.382Z,4.03
2024-01-14T05:45:00.375Z,4.63
2024-01-14T05:47:27.375Z,4.53
2024-01-14T05:49:54.832Z,3.87
2024-01-14T05:52:37.451Z,3.83
2024-01-14T05:55:05.258Z,3.57
2024-01-14T05:57:32.199Z,3.00
2024-01-14T05:59:59.168Z,5.30
2024-01-14T06:02:26.036Z,5.70
2024-01-14T06:04:52.927Z,5.50
2024-01-14T06:07:20.342Z,5.53
2024-01-14T06:09:47.269Z,5.17
2024-01-14T06:12:15.537Z,4.67
2024-01-14T06:14:42.376Z,3.83
2024-01-14T06:17:09.965Z,3.93
2024-01-14T06:19:36.923Z,3.77
2024-01-14T06:22:04.221Z,4.10
2024-01-14T06:24:31.199Z,5.40
2024-01-14T06:26:58.115Z,3.80
2024-01-14T06:29:25.357Z,3.87
2024-01-14T06:31:52.280Z,4.07
2024-01-14T06:34:19.299Z,3.73
2024-01-14T06:36:46.274Z,4.20
2024-01-14T06:39:13.294Z,4.17
2024-01-14T06:41:40.127Z,4.20
2024-01-14T06:44:06.932Z,5.87
2024-01-14T06:46:33.762Z,5.43
2024-01-14T06:49:01.545Z,5.00
2024-01-14T06:51:28.461Z,4.13
2024-01-14T06:53:55.998Z,4.40
2024-01-14T06:56:22.822Z,4.10
2024-01-14T06:58:51.237Z,4.53
2024-01-14T07:01:18.154Z,4.80
2024-01-14T07:03:45.432Z,4.60
2024-01-14T07:06:12.543Z,3.40
2024-01-14T07:08:41.205Z,3.23
2024-01-14T07:11:08.189Z,3.10
2024-01-14T07:13:34.981Z,2.80
2024-01-14T07:16:01.732Z,3.20
2024-01-14T07:18:28.806Z,2.90
2024-01-14T07:20:55.692Z,3.27
2024-01-14T07:23:42.745Z,3.47
2024-01-14T07:26:16.653Z,2.87
2024-01-14T07:28:43.622Z,3.10
2024-01-14T07:31:11.775Z,2.90
2024-01-14T07:33:38.894Z,3.33
2024-01-14T07:36:06.151Z,3.30
2024-01-14T07:38:33.006Z,3.43
2024-01-14T07:40:59.834Z,3.37
2024-01-14T07:43:26.591Z,3.90
2024-01-14T07:45:54.115Z,3.73
2024-01-14T07:48:21.412Z,3.90
2024-01-14T07:50:48.261Z,2.73
2024-01-14T07:53:15.176Z,3.40
2024-01-14T07:55:43.333Z,2.97
2024-01-14T07:58:12.774Z,3.20
2024-01-14T08:00:48.734Z,3.70
2024-01-14T08:03:21.938Z,3.93
2024-01-14T08:05:48.806Z,3.33
2024-01-14T08:08:15.558Z,3.83
2024-01-14T08:10:43.988Z,2.97
2024-01-14T08:13:10.869Z,2.67
2024-01-14T08:15:49.066Z,3.40
2024-01-14T08:18:21.154Z,2.67
2024-01-14T08:20:49.213Z,3.27
2024-01-14T08:23:16.577Z,3.00
2024-01-14T08:25:43.700Z,2.60
2024-01-14T08:28:10.495Z,2.83
2024-01-14T08:30:37.496Z,2.50
2024-01-14T08:33:04.581Z,2.63
2024-01-14T08:35:31.509Z,2.53
2024-01-14T08:37:58.991Z,3.77
2024-01-14T08:40:25.761Z,3.13
2024-01-14T08:42:52.536Z,3.30
2024-01-14T08:45:19.331Z,3.00
2024-01-14T08:47:46.733Z,3.27
2024-01-14T08:50:13.584Z,3.00
2024-01-14T08:52:40.569Z,2.90
2024-01-14T08:55:07.774Z,2.70
2024-01-14T08:57:34.622Z,2.90
2024-01-14T09:00:01.684Z,2.87
2024-01-14T09:02:28.545Z,3.77
2024-01-14T09:04:55.271Z,3.60
2024-01-14T09:07:22.080Z,4.07
2024-01-14T09:09:50.115Z,4.30
2024-01-14T09:12:17.102Z,4.50
2024-01-14T09:14:43.956Z,4.30
2024-01-14T09:17:11.422Z,3.93
2024-01-14T09:19:38.356Z,3.70
2024-01-14T09:22:05.196Z,3.43
2024-01-14T09:24:32.035Z,3.23
2024-01-14T09:26:58.865Z,2.93
2024-01-14T09:29:25.725Z,3.50
2024-01-14T09:31:54.143Z,3.03
2024-01-14T09:34:21.239Z,3.20
2024-01-14T09:36:48.099Z,3.03
2024-01-14T09:39:15.007Z,3.77
2024-01-14T09:42:01.351Z,3.60
2024-01-14T09:44:28.217Z,3.40
2024-01-14T09:46:56.796Z,3.17
2024-01-14T09:49:23.759Z,3.73
2024-01-14T09:51:51.077Z,3.70
2024-01-14T09:54:17.992Z,4.30
2024-01-14T09:56:45.606Z,4.40
2024-01-14T09:59:14.823Z,3.90
2024-01-14T10:01:41.623Z,4.00
2024-01-14T10:04:09.685Z,4.57
2024-01-14T10:06:37.015Z,4.97
2024-01-14T10:09:04.168Z,3.80
2024-01-14T10:11:31.005Z,3.80
2024-01-14T10:13:57.897Z,3.97
2024-01-14T10:16:50.787Z,4.30
2024-01-14T10:19:11.606Z,4.20
2024-01-14T10:21:39.168Z,4.10
2024-01-14T10:24:06.293Z,3.27
2024-01-14T10:26:33.285Z,4.00
2024-01-14T10:29:06.082Z,4.27
2024-01-14T10:31:33.257Z,4.00
2024-01-14T10:34:03.735Z,3.90
2024-01-14T10:36:33.591Z,4.33
2024-01-14T10:39:00.863Z,4.23
2024-01-14T10:41:27.701Z,4.03
2024-01-14T10:43:54.527Z,3.63
2024-01-14T10:46:22.946Z,3.70
2024-01-14T10:48:51.096Z,4.50
2024-01-14T10:51:18.157Z,4.50
2024-01-14T10:54:02.281Z,4.63
2024-01-14T10:56:33.143Z,4.13
2024-01-14T10:59:00.946Z,4.37
2024-01-14T11:01:31.274Z,4.50
2024-01-14T11:03:59.107Z,4.07
2024-01-14T11:06:26.857Z,4.27
2024-01-14T11:08:54.120Z,5.00
2024-01-14T11:11:23.156Z,4.90
2024-01-14T11:14:22.398Z,5.70
2024-01-14T11:17:12.186Z,5.77
2024-01-14T11:19:40.741Z,4.97
2024-01-14T11:22:30.720Z,4.93
2024-01-14T11:25:02.884Z,4.97
2024-01-14T11:27:30.224Z,4.90
2024-01-14T11:29:59.791Z,4.77
2024-01-14T11:32:26.943Z,6.43
2024-01-14T11:34:59.607Z,8.00
2024-01-14T11:37:38.715Z,9.23
2024-01-14T11:40:14.570Z,9.43
2024-01-14T11:42:50.605Z,9.57
2024-01-14T11:45:23.327Z,9.93
2024-01-14T11:47:51.114Z,10.13
2024-01-14T11:50:19.240Z,10.10
2024-01-14T11:52:47.030Z,10.60
2024-01-14T11:55:15.730Z,10.23
2024-01-14T11:57:42.826Z,11.23
2024-01-14T12:00:09.923Z,10.33
2024-01-14T12:02:36.735Z,10.07
2024-01-14T12:05:16.525Z,10.43
2024-01-14T12:07:43.789Z,11.47
2024-01-14T12:10:14.068Z,11.83
2024-01-14T12:12:41.400Z,11.70
2024-01-14T12:15:09.427Z,11.27
2024-01-14T12:17:36.362Z,11.23
2024-01-14T12:20:05.680Z,10.80
2024-01-14T12:22:32.521Z,10.80
2024-01-14T12:24:59.400Z,11.57
2024-01-14T12:27:27.269Z,9.80
2024-01-14T12:29:55.983Z,10.47
2024-01-14T12:32:23.034Z,10.77
2024-01-14T12:34:50.254Z,10.80
2024-01-14T12:37:17.581Z,10.77
2024-01-14T12:39:44.808Z,9.80
2024-01-14T12:42:13.119Z,9.63
2024-01-14T12:44:44.203Z,10.30
2024-01-14T12:47:11.039Z,10.33
2024-01-14T12:49:39.152Z,10.70
2024-01-14T12:52:07.121Z,11.70
2024-01-14T12:54:34.366Z,10.60
2024-01-14T12:57:02.842Z,10.70
2024-01-14T12:59:30.751Z,10.80
2024-01-14T13:01:57.746Z,10.33
2024-01-14T13:04:24.918Z,11.23
2024-01-14T13:06:52.517Z,11.47
2024-01-14T13:09:19.637Z,10.77
2024-01-14T13:11:46.672Z,8.87
2024-01-14T13:14:13.583Z,11.20
2024-01-14T13:16:46.687Z,11.27
2024-01-14T13:19:19.979Z,11.30
2024-01-14T13:21:46.843Z,9.40
2024-01-14T13:24:14.297Z,11.70
2024-01-14T13:26:43.442Z,9.90
2024-01-14T13:29:11.997Z,10.37
2024-01-14T13:31:41.215Z,9.90
2024-01-14T13:34:09.242Z,9.70
2024-01-14T13:36:36.762Z,10.23
2024-01-14T13:39:05.591Z,10.20
2024-01-14T13:41:33.143Z,10.33
2024-01-14T13:44:12.603Z,10.27
2024-01-14T13:46:45.382Z,10.40
2024-01-14T13:49:12.450Z,9.80
2024-01-14T13:51:40.078Z,8.67
2024-01-14T13:54:13.051Z,9.13
2024-01-14T13:56:42.514Z,7.50
2024-01-14T13:59:10.533Z,8.70
2024-01-14T14:01:39.170Z,7.80
2024-01-14T14:04:06.681Z,8.53
2024-01-14T14:06:37.424Z,9.20
2024-01-14T14:09:07.438Z,8.77
2024-01-14T14:11:34.747Z,9.17
2024-01-14T14:14:01.624Z,9.23
2024-01-14T14:16:38.971Z,8.37
2024-01-14T14:19:09.183Z,7.87
2024-01-14T14:21:50.102Z,8.27
2024-01-14T14:24:23.973Z,8.30
2024-01-14T14:26:50.963Z,9.70
2024-01-14T14:29:20.914Z,8.00
2024-01-14T14:31:50.277Z,8.20
2024-01-14T14:34:21.461Z,8.40
2024-01-14T14:36:49.859Z,8.53
2024-01-14T14:39:17.537Z,8.73
2024-01-14T14:41:44.375Z,8.60
2024-01-14T14:44:12.030Z,7.07
2024-01-14T14:46:42.115Z,5.43
2024-01-14T14:49:09.184Z,5.30
2024-01-14T14:51:40.724Z,4.40
2024-01-14T14:54:10.191Z,5.63
2024-01-14T14:56:37.662Z,5.20
2024-01-14T14:59:04.999Z,5.40
2024-01-14T15:01:37.531Z,4.80
2024-01-14T15:04:11.187Z,4.83
2024-01-14T15:06:39.118Z,4.93
2024-01-14T15:09:06.782Z,4.00
2024-01-14T15:11:38.142Z,5.13
2024-01-14T15:14:06.643Z,5.00
2024-01-14T15:16:33.744Z,4.40
2024-01-14T15:19:00.697Z,5.33
2024-01-14T15:21:27.721Z,7.47
2024-01-14T15:23:54.663Z,8.43
2024-01-14T15:26:21.455Z,7.60
2024-01-14T15:28:48.209Z,7.20
2024-01-14T15:31:15.326Z,8.50
2024-01-14T15:33:42.477Z,8.50
2024-01-14T15:36:10.573Z,7.80
2024-01-14T15:38:39.062Z,8.23
2024-01-14T15:41:07.577Z,7.30
2024-01-14T15:43:35.141Z,7.30
2024-01-14T15:46:02.323Z,6.17
2024-01-14T15:48:30.152Z,6.40
2024-01-14T15:51:03.390Z,6.70
2024-01-14T15:53:32.212Z,6.90
2024-01-14T15:55:59.007Z,7.70
2024-01-14T15:58:25.760Z,8.50
2024-01-14T16:01:03.270Z,8.73
2024-01-14T16:03:35.883Z,7.70
2024-01-14T16:06:03.413Z,7.97
2024-01-14T16:08:31.375Z,8.33
2024-01-14T16:11:04.964Z,8.53
2024-01-14T16:13:34.358Z,8.80
2024-01-14T16:16:01.557Z,7.67
2024-01-14T16:18:28.513Z,7.93
2024-01-14T16:21:03.013Z,8.50
2024-01-14T16:23:35.287Z,8.13
2024-01-14T16:26:03.147Z,7.50
2024-01-14T16:28:30.390Z,6.67
2024-01-14T16:31:06.030Z,7.40
2024-01-14T16:33:39.437Z,6.90
2024-01-14T16:36:06.938Z,6.47
2024-01-14T16:38:33.951Z,6.40
2024-01-14T16:41:04.903Z,5.40
2024-01-14T16:43:33.542Z,6.67
2024-01-14T16:46:00.424Z,7.60
2024-01-14T16:48:27.565Z,8.97
2024-01-14T16:51:05.676Z,7.40
2024-01-14T16:53:36.271Z,6.50
2024-01-14T16:56:03.701Z,7.47
2024-01-14T16:58:32.332Z,5.97
2024-01-14T17:01:12.180Z,5.77
2024-01-14T17:03:44.485Z,7.13
2024-01-14T17:06:14.265Z,5.97
2024-01-14T17:08:44.091Z,6.77
2024-01-14T17:11:12.689Z,6.87
2024-01-14T17:13:39.666Z,7.40
2024-01-14T17:16:10.194Z,7.70
2024-01-14T17:18:39.984Z,6.70
2024-01-14T17:21:08.215Z,8.10
2024-01-14T17:23:35.554Z,8.33
2024-01-14T17:26:07.927Z,8.60
2024-01-14T17:28:40.309Z,8.30
2024-01-14T17:31:11.418Z,7.47
2024-01-14T17:33:39.003Z,7.97
2024-01-14T17:36:09.974Z,7.73
2024-01-14T17:38:36.781Z,7.83
2024-01-14T17:41:04.786Z,9.00
2024-01-14T17:43:32.574Z,7.93
2024-01-14T17:46:07.044Z,8.13
2024-01-14T17:48:36.762Z,7.70
2024-01-14T17:51:04.189Z,8.70
2024-01-14T17:53:31.350Z,9.07
2024-01-14T17:55:58.299Z,8.90
2024-01-14T17:58:25.409Z,8.70
2024-01-14T18:00:52.568Z,7.80
2024-01-14T18:03:19.956Z,9.17
2024-01-14T18:05:47.316Z,8.67
2024-01-14T18:08:14.537Z,9.67
2024-01-14T18:10:42.653Z,10.20
2024-01-14T18:13:13.325Z,8.87
2024-01-14T18:15:42.009Z,9.47
2024-01-14T18:18:09.505Z,9.70
2024-01-14T18:20:36.628Z,10.30
2024-01-14T18:23:12.786Z,9.20
2024-01-14T18:25:45.339Z,8.97
2024-01-14T18:28:13.594Z,8.77
2024-01-14T18:30:40.641Z,9.20
2024-01-14T18:33:11.862Z,9.40
2024-01-14T18:35:42.074Z,8.40
2024-01-14T18:38:10.234Z,8.47
2024-01-14T18:40:37.116Z,8.70
2024-01-14T18:43:05.808Z,9.17
2024-01-14T18:45:32.707Z,8.00
2024-01-14T18:48:00.298Z,8.90
2024-01-14T18:50:27.827Z,8.13
2024-01-14T18:52:56.663Z,8.03
2024-01-14T18:55:24.654Z,8.70
2024-01-14T18:57:51.598Z,8.00
2024-01-14T19:00:21.069Z,9.20
2024-01-14T19:03:06.469Z,8.57
2024-01-14T19:05:53.081Z,9.07
2024-01-14T19:08:37.939Z,7.53
2024-01-14T19:11:25.016Z,7.90
2024-01-14T19:14:12.543Z,8.40
2024-01-14T19:16:58.987Z,9.23
2024-01-14T19:19:34.942Z,8.50
2024-01-14T19:22:09.245Z,8.63
2024-01-14T19:24:36.071Z,9.30
2024-01-14T19:27:03.006Z,8.40
2024-01-14T19:29:29.879Z,8.30
2024-01-14T19:31:56.835Z,7.20
2024-01-14T19:34:24.660Z,6.30
2024-01-14T19:36:51.551Z,4.90
2024-01-14T19:39:20.292Z,4.63
2024-01-14T19:41:47.200Z,4.63
2024-01-14T19:44:15.865Z,4.47
2024-01-14T19:46:42.667Z,4.43
2024-01-14T19:49:09.721Z,3.73
2024-01-14T19:51:36.771Z,4.13
2024-01-14T19:54:04.958Z,4.20
2024-01-14T19:56:32.928Z,3.93
2024-01-14T19:59:00.269Z,4.03
2024-01-14T20:01:27.123Z,4.47
2024-01-14T20:03:54.112Z,3.70
2024-01-14T20:06:21.982Z,4.00
2024-01-14T20:08:49.200Z,4.47
2024-01-14T20:11:16.216Z,4.77
2024-01-14T20:13:43.097Z,5.33
2024-01-14T20:16:10.108Z,4.73
2024-01-14T20:18:37.768Z,4.50
2024-01-14T20:21:04.916Z,5.23
2024-01-14T20:23:31.975Z,5.63
2024-01-14T20:25:58.798Z,5.40
2024-01-14T20:28:25.563Z,6.03
2024-01-14T20:30:52.591Z,5.67
2024-01-14T20:33:19.733Z,5.17
2024-01-14T20:35:46.570Z,6.20
2024-01-14T20:38:13.883Z,5.60
2024-01-14T20:40:40.632Z,6.07
2024-01-14T20:43:07.438Z,5.53
2024-01-14T20:45:34.412Z,6.57
2024-01-14T20:48:01.413Z,6.50
2024-01-14T20:50:28.360Z,6.53
2024-01-14T20:52:55.115Z,6.17
2024-01-14T20:55:21.914Z,6.60
2024-01-14T20:57:48.810Z,6.40
2024-01-14T21:00:15.875Z,7.90
2024-01-14T21:02:42.791Z,8.70
2024-01-14T21:05:09.629Z,8.33
2024-01-14T21:07:36.488Z,8.80
2024-01-14T21:10:03.359Z,8.67
2024-01-14T21:12:30.234Z,8.97
2024-01-14T21:14:57.133Z,9.43
2024-01-14T21:17:23.881Z,9.73
2024-01-14T21:19:51.180Z,10.00
2024-01-14T21:22:18.264Z,10.00
2024-01-14T21:24:45.070Z,9.80
2024-01-14T21:27:12.657Z,9.00
2024-01-14T21:29:39.559Z,10.20
2024-01-14T21:32:08.646Z,8.80
2024-01-14T21:34:35.638Z,8.70
2024-01-14T21:37:02.728Z,7.60
2024-01-14T21:39:30.294Z,8.07
2024-01-14T21:41:57.138Z,9.30
2024-01-14T21:44:24.249Z,10.10
2024-01-14T21:46:50.992Z,7.90
2024-01-14T21:49:17.860Z,9.43
2024-01-14T21:51:44.780Z,8.80
2024-01-14T21:54:11.585Z,7.30
2024-01-14T21:56:38.380Z,6.23
2024-01-14T21:59:05.309Z,6.53
2024-01-14T22:01:32.091Z,6.50
2024-01-14T22:03:58.872Z,6.73
2024-01-14T22:06:25.724Z,5.90
2024-01-14T22:08:52.567Z,6.83
2024-01-14T22:11:19.635Z,6.87
2024-01-14T22:13:46.500Z,6.90
2024-01-14T22:16:13.257Z,6.20
2024-01-14T22:18:40.213Z,5.10
2024-01-14T22:21:07.559Z,6.00
2024-01-14T22:23:34.319Z,4.90
2024-01-14T22:26:01.063Z,6.13
2024-01-14T22:28:27.868Z,6.43
2024-01-14T22:30:54.715Z,5.03
2024-01-14T22:33:21.777Z,6.40
2024-01-14T22:35:48.705Z,5.63
2024-01-14T22:38:15.443Z,6.67
2024-01-14T22:40:42.679Z,6.03
2024-01-14T22:43:09.572Z,6.30
2024-01-14T22:45:38.470Z,6.20
2024-01-14T22:48:05.617Z,6.27
2024-01-14T22:50:32.482Z,5.73
2024-01-14T22:52:59.235Z,5.57
2024-01-14T22:55:26.070Z,6.10
2024-01-14T22:57:52.929Z,7.20
2024-01-14T23:00:26.589Z,6.37
2024-01-14T23:02:53.688Z,5.97
2024-01-14T23:05:20.491Z,6.60
2024-01-14T23:07:47.284Z,6.70
2024-01-14T23:10:14.188Z,6.50
2024-01-14T23:12:41.004Z,6.53
2024-01-14T23:15:09.190Z,6.53
2024-01-14T23:17:36.660Z,5.93
2024-01-14T23:20:03.651Z,6.13
2024-01-14T23:22:30.410Z,4.70
2024-01-14T23:24:57.207Z,5.70
2024-01-14T23:27:24.053Z,6.00
2024-01-14T23:29:50.860Z,5.30
2024-01-14T23:32:17.689Z,6.23
2024-01-14T23:34:44.785Z,6.20
2024-01-14T23:37:11.617Z,5.63
2024-01-14T23:39:38.475Z,5.03
2024-01-14T23:42:05.374Z,4.47
2024-01-14T23:44:32.141Z,4.90
2024-01-14T23:46:59.042Z,4.00
2024-01-14T23:49:25.893Z,4.73
2024-01-14T23:51:52.782Z,5.13
2024-01-14T23:54:20.758Z,4.90
2024-01-14T23:56:47.703Z,5.53
2024-01-14T23:59:14.515Z,4.77
